Time,TemperatureF,DewpointF,PressureIn,WindDirection,WindDirectionDegrees,WindSpeedMPH,WindSpeedGustMPH,Humidity,HourlyPrecipIn,Conditions,Clouds,dailyrainin,SoftwareType,DateUTC
2013-03-05 00:02:00,44.4,40.0,30.13,SW,219,0.0,0.0,84,0.00,,,0.00,weatherlink.com 1.10,2013-03-05 05:02:00,
2013-03-05 00:17:00,44.3,40.0,30.13,SW,219,0.0,0.0,86,0.00,,,0.00,weatherlink.com 1.10,2013-03-05 05:17:00,
2013-03-05 00:33:00,44.2,40.0,30.12,SSE,151,0.0,1.0,86,0.00,,,0.00,weatherlink.com 1.10,2013-03-05 05:33:00,
2013-03-05 00:48:00,44.7,41.0,30.12,SSE,152,0.0,0.0,88,0.00,,,0.00,weatherlink.com 1.10,2013-03-05 05:48:00,
2013-03-05 01:03:00,44.5,41.0,30.11,SSE,151,0.0,1.0,88,0.00,,,0.00,weatherlink.com 1.10,2013-03-05 06:03:00,
2013-03-05 01:18:00,44.6,42.0,30.11,SSE,151,0.0,0.0,89,0.00,,,0.00,weatherlink.com 1.10,2013-03-05 06:18:00,
2013-03-05 01:33:00,45.0,42.0,30.13,SSE,150,0.0,0.0,90,0.00,,,0.00,weatherlink.com 1.10,2013-03-05 06:33:00,
2013-03-05 01:48:00,45.5,43.0,30.13,SSE,150,0.0,0.0,91,0.00,,,0.00,weatherlink.com 1.10,2013-03-05 06:48:00,
2013-03-05 02:03:00,45.1,43.0,30.14,SW,218,0.0,1.0,92,0.00,,,0.00,weatherlink.com 1.10,2013-03-05 07:03:00,
2013-03-05 02:18:00,44.9,43.0,30.14,SW,218,0.0,0.0,92,0.00,,,0.00,weatherlink.com 1.10,2013-03-05 07:18:00,
2013-03-05 02:33:00,44.5,42.0,30.13,SW,217,0.0,1.0,92,0.00,,,0.00,weatherlink.com 1.10,2013-03-05 07:33:00,
2013-03-05 02:48:00,43.9,42.0,30.13,SSE,151,0.0,1.0,93,0.00,,,0.00,weatherlink.com 1.10,2013-03-05 07:48:00,
2013-03-05 03:03:00,43.5,42.0,30.13,SSE,150,0.0,1.0,93,0.00,,,0.00,weatherlink.com 1.10,2013-03-05 08:03:00,
2013-03-05 03:18:00,43.5,42.0,30.12,SSE,151,0.0,0.0,93,0.00,,,0.00,weatherlink.com 1.10,2013-03-05 08:18:00,
2013-03-05 03:33:00,43.5,42.0,30.12,SSE,150,0.0,0.0,93,0.00,,,0.00,weatherlink.com 1.10,2013-03-05 08:33:00,
2013-03-05 03:48:00,43.4,42.0,30.13,SSE,151,0.0,1.0,94,0.00,,,0.00,weatherlink.com 1.10,2013-03-05 08:48:00,
2013-03-05 04:03:00,43.8,42.0,30.13,SSE,150,0.0,0.0,94,0.00,,,0.00,weatherlink.com 1.10,2013-03-05 09:03:00,
2013-03-05 04:18:00,43.6,42.0,30.12,SSE,150,0.0,0.0,94,0.00,,,0.00,weatherlink.com 1.10,2013-03-05 09:18:00,
2013-03-05 04:33:00,43.9,43.0,30.13,SSE,150,0.0,0.0,95,0.00,,,0.00,weatherlink.com 1.10,2013-03-05 09:33:00,
2013-03-05 04:48:00,44.2,43.0,30.14,SSE,150,0.0,0.0,95,0.00,,,0.00,weatherlink.com 1.10,2013-03-05 09:48:00,
2013-03-05 05:03:00,43.6,42.0,30.13,SSE,151,0.0,0.0,95,0.00,,,0.00,weatherlink.com 1.10,2013-03-05 10:03:00,
2013-03-05 05:18:00,43.1,42.0,30.14,SSE,151,0.0,0.0,95,0.00,,,0.00,weatherlink.com 1.10,2013-03-05 10:18:00,
2013-03-05 05:33:00,42.4,41.0,30.14,SSE,151,0.0,0.0,95,0.00,,,0.00,weatherlink.com 1.10,2013-03-05 10:33:00,
2013-03-05 05:48:00,42.2,41.0,30.14,SSE,150,0.0,0.0,95,0.00,,,0.00,weatherlink.com 1.10,2013-03-05 10:48:00,
2013-03-05 06:03:00,42.3,41.0,30.15,SSE,150,0.0,0.0,96,0.00,,,0.00,weatherlink.com 1.10,2013-03-05 11:03:00,
2013-03-05 06:18:00,42.5,42.0,30.14,SSE,151,0.0,0.0,96,0.00,,,0.00,weatherlink.com 1.10,2013-03-05 11:18:00,
2013-03-05 06:33:00,43.3,42.0,30.14,SSE,150,0.0,0.0,96,0.00,,,0.00,weatherlink.com 1.10,2013-03-05 11:33:00,
2013-03-05 06:48:00,43.3,42.0,30.14,SSE,151,0.0,0.0,96,0.00,,,0.00,weatherlink.com 1.10,2013-03-05 11:48:00,
2013-03-05 07:03:00,44.0,43.0,30.14,SSE,153,0.0,1.0,97,0.00,,,0.00,weatherlink.com 1.10,2013-03-05 12:03:00,
2013-03-05 07:18:00,45.2,45.0,30.14,SW,232,0.0,1.0,98,0.00,,,0.00,weatherlink.com 1.10,2013-03-05 12:18:00,
2013-03-05 07:33:00,47.5,47.0,30.14,West,262,2.0,3.0,98,0.00,,,0.00,weatherlink.com 1.10,2013-03-05 12:33:00,
2013-03-05 07:48:00,49.6,48.0,30.14,WSW,250,3.0,7.0,94,0.00,,,0.00,weatherlink.com 1.10,2013-03-05 12:48:00,
2013-03-05 08:03:00,51.3,47.0,30.14,WSW,242,4.0,7.0,85,0.00,,,0.00,weatherlink.com 1.10,2013-03-05 13:03:00,
2013-03-05 08:18:00,52.3,47.0,30.14,SSW,212,3.0,6.0,81,0.00,,,0.00,weatherlink.com 1.10,2013-03-05 13:18:00,
2013-03-05 08:33:00,52.5,47.0,30.13,SW,229,1.0,6.0,82,0.00,,,0.00,weatherlink.com 1.10,2013-03-05 13:33:00,
2013-03-05 08:48:00,53.5,47.0,30.13,WSW,256,3.0,7.0,78,0.00,,,0.00,weatherlink.com 1.10,2013-03-05 13:48:00,
2013-03-05 09:03:00,54.7,48.0,30.13,WSW,249,3.0,9.0,77,0.00,,,0.00,weatherlink.com 1.10,2013-03-05 14:03:00,
2013-03-05 09:19:00,55.9,47.0,30.12,SW,221,3.0,11.0,73,0.00,,,0.00,weatherlink.com 1.10,2013-03-05 14:19:00,
2013-03-05 09:34:00,57.1,46.0,30.10,SW,236,4.0,10.0,67,0.00,,,0.00,weatherlink.com 1.10,2013-03-05 14:34:00,
2013-03-05 09:49:00,58.2,44.0,30.10,WSW,239,7.0,12.0,59,0.00,,,0.00,weatherlink.com 1.10,2013-03-05 14:49:00,
2013-03-05 10:04:00,58.4,43.0,30.10,WSW,239,5.0,10.0,58,0.00,,,0.00,weatherlink.com 1.10,2013-03-05 15:04:00,
2013-03-05 10:19:00,59.7,43.0,30.07,WSW,252,7.0,11.0,55,0.00,,,0.00,weatherlink.com 1.10,2013-03-05 15:19:00,
2013-03-05 10:34:00,59.8,41.0,30.07,SW,224,13.0,16.0,51,0.00,,,0.00,weatherlink.com 1.10,2013-03-05 15:34:00,
2013-03-05 10:49:00,60.8,42.0,30.09,West,274,10.0,15.0,50,0.00,,,0.00,weatherlink.com 1.10,2013-03-05 15:49:00,
2013-03-05 11:04:00,61.3,40.0,30.08,SW,233,6.0,17.0,45,0.00,,,0.00,weatherlink.com 1.10,2013-03-05 16:04:00,
2013-03-05 11:19:00,61.5,40.0,30.07,WSW,253,8.0,14.0,46,0.00,,,0.00,weatherlink.com 1.10,2013-03-05 16:19:00,
2013-03-05 11:34:00,61.9,42.0,30.06,WSW,257,8.0,15.0,49,0.00,,,0.00,weatherlink.com 1.10,2013-03-05 16:34:00,
2013-03-05 11:49:00,62.7,41.0,30.06,SW,232,7.0,13.0,46,0.00,,,0.00,weatherlink.com 1.10,2013-03-05 16:49:00,
2013-03-05 12:04:00,61.4,39.0,30.06,WSW,240,12.0,18.0,43,0.00,,,0.00,weatherlink.com 1.10,2013-03-05 17:04:00,
2013-03-05 12:19:00,61.1,39.0,30.05,WSW,242,19.0,19.0,44,0.00,,,0.00,weatherlink.com 1.10,2013-03-05 17:19:00,
2013-03-05 12:34:00,61.1,40.0,30.04,SW,236,10.0,15.0,46,0.00,,,0.00,weatherlink.com 1.10,2013-03-05 17:34:00,
2013-03-05 12:49:00,60.4,41.0,30.03,WSW,238,9.0,18.0,50,0.00,,,0.00,weatherlink.com 1.10,2013-03-05 17:49:00,
2013-03-05 13:04:00,59.9,41.0,30.02,SSW,210,8.0,18.0,50,0.00,,,0.00,weatherlink.com 1.10,2013-03-05 18:04:00,
2013-03-05 13:19:00,59.6,42.0,30.01,SW,233,11.0,18.0,53,0.00,,,0.00,weatherlink.com 1.10,2013-03-05 18:19:00,
2013-03-05 13:34:00,59.4,43.0,30.00,WSW,255,7.0,13.0,55,0.00,,,0.00,weatherlink.com 1.10,2013-03-05 18:34:00,
2013-03-05 13:49:00,58.6,43.0,29.99,WSW,245,10.0,19.0,57,0.00,,,0.00,weatherlink.com 1.10,2013-03-05 18:49:00,
2013-03-05 14:05:00,58.6,43.0,29.99,WSW,239,9.0,19.0,57,0.00,,,0.00,weatherlink.com 1.10,2013-03-05 19:05:00,
2013-03-05 14:20:00,58.2,44.0,29.99,SW,215,1.0,12.0,60,0.00,,,0.00,weatherlink.com 1.10,2013-03-05 19:20:00,
2013-03-05 14:35:00,58.1,45.0,29.97,WSW,248,7.0,18.0,61,0.00,,,0.00,weatherlink.com 1.10,2013-03-05 19:35:00,
2013-03-05 14:50:00,58.6,46.0,29.97,WSW,238,7.0,13.0,63,0.00,,,0.00,weatherlink.com 1.10,2013-03-05 19:50:00,
2013-03-05 15:05:00,58.8,47.0,29.96,SW,231,8.0,17.0,64,0.00,,,0.00,weatherlink.com 1.10,2013-03-05 20:05:00,
2013-03-05 15:20:00,59.1,48.0,29.95,West,264,4.0,14.0,66,0.00,,,0.00,weatherlink.com 1.10,2013-03-05 20:20:00,
2013-03-05 15:35:00,59.3,48.0,29.94,WSW,252,13.0,14.0,67,0.00,,,0.00,weatherlink.com 1.10,2013-03-05 20:35:00,
2013-03-05 15:50:00,59.3,48.0,29.94,SW,233,8.0,14.0,67,0.00,,,0.00,weatherlink.com 1.10,2013-03-05 20:50:00,
2013-03-05 16:05:00,58.9,48.0,29.94,SW,228,7.0,13.0,68,0.00,,,0.00,weatherlink.com 1.10,2013-03-05 21:05:00,
2013-03-05 16:20:00,58.5,49.0,29.93,SW,236,4.0,13.0,71,0.00,,,0.00,weatherlink.com 1.10,2013-03-05 21:20:00,
2013-03-05 16:35:00,58.6,49.0,29.93,WSW,238,6.0,15.0,71,0.00,,,0.00,weatherlink.com 1.10,2013-03-05 21:35:00,
2013-03-05 16:50:00,59.1,50.0,29.91,SW,229,5.0,16.0,71,0.00,,,0.00,weatherlink.com 1.10,2013-03-05 21:50:00,
2013-03-05 17:05:00,59.4,50.0,29.91,SW,215,13.0,16.0,70,0.00,,,0.00,weatherlink.com 1.10,2013-03-05 22:05:00,
2013-03-05 17:20:00,59.3,50.0,29.90,WSW,238,3.0,11.0,72,0.00,,,0.00,weatherlink.com 1.10,2013-03-05 22:20:00,
2013-03-05 17:35:00,60.1,51.0,29.89,SW,217,8.0,12.0,71,0.00,,,0.00,weatherlink.com 1.10,2013-03-05 22:35:00,
2013-03-05 17:50:00,59.8,51.0,29.88,SW,217,4.0,15.0,73,0.00,,,0.00,weatherlink.com 1.10,2013-03-05 22:50:00,
2013-03-05 18:05:00,59.2,52.0,29.87,WSW,239,3.0,12.0,76,0.00,,,0.00,weatherlink.com 1.10,2013-03-05 23:05:00,
2013-03-05 18:21:00,58.6,52.0,29.87,SW,233,7.0,11.0,78,0.00,,,0.00,weatherlink.com 1.10,2013-03-05 23:21:00,
2013-03-05 18:35:00,58.7,52.0,29.87,SW,236,6.0,10.0,78,0.00,,,0.00,weatherlink.com 1.10,2013-03-05 23:35:00,
2013-03-05 18:50:00,58.9,52.0,29.86,West,259,4.0,10.0,79,0.00,,,0.00,weatherlink.com 1.10,2013-03-05 23:50:00,
2013-03-05 19:05:00,59.5,53.0,29.85,WSW,242,6.0,13.0,79,0.00,,,0.00,weatherlink.com 1.10,2013-03-06 00:05:00,
2013-03-05 19:20:00,59.8,53.0,29.84,SSW,205,5.0,10.0,78,0.00,,,0.00,weatherlink.com 1.10,2013-03-06 00:20:00,
2013-03-05 19:35:00,60.4,53.0,29.82,WSW,256,8.0,13.0,76,0.00,,,0.00,weatherlink.com 1.10,2013-03-06 00:35:00,
2013-03-05 19:50:00,60.9,53.0,29.81,SW,235,6.0,15.0,75,0.00,,,0.00,weatherlink.com 1.10,2013-03-06 00:50:00,
2013-03-05 20:05:00,61.0,53.0,29.79,West,263,6.0,16.0,75,0.00,,,0.00,weatherlink.com 1.10,2013-03-06 01:05:00,
2013-03-05 20:20:00,61.0,53.0,29.78,South,179,2.0,14.0,76,0.00,,,0.00,weatherlink.com 1.10,2013-03-06 01:20:00,
2013-03-05 20:35:00,61.3,53.0,29.77,WSW,257,11.0,19.0,75,0.00,,,0.00,weatherlink.com 1.10,2013-03-06 01:35:00,
2013-03-05 20:50:00,61.7,54.0,29.77,WSW,245,19.0,19.0,76,0.00,,,0.00,weatherlink.com 1.10,2013-03-06 01:50:00,
2013-03-05 21:05:00,62.0,54.0,29.78,SW,226,16.0,17.0,76,0.00,,,0.00,weatherlink.com 1.10,2013-03-06 02:05:00,
2013-03-05 21:20:00,62.2,55.0,29.77,WSW,242,8.0,17.0,77,0.00,,,0.00,weatherlink.com 1.10,2013-03-06 02:20:00,
2013-03-05 21:35:00,62.5,56.0,29.76,SW,226,8.0,20.0,78,0.00,,,0.00,weatherlink.com 1.10,2013-03-06 02:35:00,
2013-03-05 21:50:00,62.6,56.0,29.76,WSW,239,9.0,26.0,79,0.00,,,0.00,weatherlink.com 1.10,2013-03-06 02:50:00,
2013-03-05 22:05:00,62.7,56.0,29.76,WSW,248,10.0,22.0,79,0.00,,,0.00,weatherlink.com 1.10,2013-03-06 03:05:00,
2013-03-05 22:20:00,62.8,57.0,29.75,SW,236,6.0,20.0,80,0.00,,,0.00,weatherlink.com 1.10,2013-03-06 03:20:00,
2013-03-05 22:36:00,63.3,57.0,29.74,WSW,238,17.0,19.0,79,0.00,,,0.00,weatherlink.com 1.10,2013-03-06 03:36:00,
2013-03-05 22:51:00,61.8,57.0,29.77,West,266,10.0,25.0,84,0.01,,,0.01,weatherlink.com 1.10,2013-03-06 03:51:00,
2013-03-05 23:06:00,61.1,55.0,29.74,West,259,14.0,28.0,79,0.01,,,0.01,weatherlink.com 1.10,2013-03-06 04:06:00,
2013-03-05 23:21:00,61.1,54.0,29.72,WSW,249,15.0,23.0,78,0.01,,,0.01,weatherlink.com 1.10,2013-03-06 04:21:00,
2013-03-05 23:36:00,60.9,54.0,29.74,WSW,255,11.0,16.0,78,0.01,,,0.01,weatherlink.com 1.10,2013-03-06 04:36:00,
2013-03-05 23:51:00,60.4,54.0,29.75,SW,233,6.0,15.0,80,0.00,,,0.01,weatherlink.com 1.10,2013-03-06 04:51:00,